Time;durP1;ratioP1;P1;durP2;ratioP2;P2;SDS_P1;SDS_P2;PMS_P1;PMS_P2;Temp;Humidity;BMP_temperature;BMP_pressure;BME280_temperature;BME280_humidity;BME280_pressure;Samples;Min_cycle;Max_cycle;Signal;HPM_P1;HPM_P2
2022/07/07 00:00:38;;;;;;;8.68;4.75;;;;;;;11.85;67.96;100645.56;2140823;83;31051;-64
2022/07/07 00:03:40;;;;;;;8.33;4.15;;;;;;;11.86;68.13;100642.78;2140506;83;33017;-64
2022/07/07 00:06:42;;;;;;;8.28;4.17;;;;;;;11.85;68.27;100645.56;2140841;83;30063;-65
2022/07/07 00:09:43;;;;;;;7.78;4.17;;;;;;;11.86;68.28;100645.47;2140909;83;27668;-64
2022/07/07 00:12:45;;;;;;;10.35;4.58;;;;;;;11.86;68.35;100645.95;2137518;82;28660;-64
2022/07/07 00:15:46;;;;;;;8.83;4.65;;;;;;;11.88;68.47;100641.39;2136755;83;31093;-64
2022/07/07 00:18:48;;;;;;;7.45;4.45;;;;;;;11.88;68.60;100641.84;2136623;83;32969;-64
2022/07/07 00:21:51;;;;;;;6.95;3.80;;;;;;;11.90;68.56;100643.98;2141244;81;29374;-64
2022/07/07 00:24:52;;;;;;;7.65;4.25;;;;;;;11.91;68.66;100648.41;2158550;82;27733;-64
2022/07/07 00:27:53;;;;;;;9.70;4.12;;;;;;;11.92;68.87;100645.62;2158416;82;29672;-64
2022/07/07 00:35:32;;;;;;;10.23;3.80;;;;;;;11.97;68.97;100644.94;2158142;82;28812;-64
2022/07/07 00:38:35;;;;;;;8.68;4.50;;;;;;;11.98;69.11;100647.17;2158653;82;29156;-64
2022/07/07 00:41:37;;;;;;;7.03;3.83;;;;;;;11.98;69.34;100645.83;2158419;82;27688;-64
2022/07/07 00:44:39;;;;;;;9.00;3.45;;;;;;;12.02;69.30;100650.59;2158291;82;29720;-64
2022/07/07 00:47:41;;;;;;;6.58;3.52;;;;;;;12.05;69.44;100642.39;2157946;82;31895;-64
2022/07/07 00:50:43;;;;;;;9.93;4.35;;;;;;;12.09;69.71;100646.18;2158288;82;33001;-64
2022/07/07 00:53:46;;;;;;;9.05;3.92;;;;;;;12.18;69.94;100639.93;2130254;82;30145;-64
2022/07/07 00:56:47;;;;;;;6.22;3.20;;;;;;;12.21;69.64;100633.06;2144429;83;28160;-64
2022/07/07 00:59:49;;;;;;;6.25;3.42;;;;;;;12.24;69.50;100632.91;2121715;83;28717;-64
2022/07/07 01:02:51;;;;;;;12.50;3.67;;;;;;;12.27;69.54;100627.39;2136819;83;31125;-63
2022/07/07 01:06:02;;;;;;;8.60;3.70;;;;;;;12.33;69.72;100638.28;2136719;83;32976;-66
2022/07/07 01:09:04;;;;;;;6.62;3.70;;;;;;;12.35;69.57;100640.42;2101694;83;29969;-64
2022/07/07 01:12:06;;;;;;;7.33;4.03;;;;;;;12.37;69.57;100639.39;2136720;82;28305;-64
2022/07/07 01:15:12;;;;;;;5.80;3.30;;;;;;;12.40;69.67;100634.34;2136972;83;28684;-65
2022/07/07 01:18:13;;;;;;;9.80;4.37;;;;;;;12.42;69.75;100631.08;2136834;82;31834;-65
2022/07/07 01:21:17;;;;;;;5.70;3.90;;;;;;;12.42;69.55;100625.25;2137064;81;32920;-64
2022/07/07 01:24:18;;;;;;;7.15;3.80;;;;;;;12.43;69.50;100614.89;2086473;85;29494;-64
2022/07/07 01:27:21;;;;;;;4.75;3.08;;;;;;;12.44;69.53;100619.32;2121634;83;28281;-64
2022/07/07 01:30:22;;;;;;;5.22;3.40;;;;;;;12.47;69.69;100615.59;2121948;83;28883;-64
2022/07/07 01:33:24;;;;;;;6.28;3.42;;;;;;;12.50;69.73;100615.89;2121948;83;31027;-63
2022/07/07 01:36:25;;;;;;;9.85;3.85;;;;;;;12.52;69.88;100608.62;2093632;83;33744;-64
2022/07/07 01:39:27;;;;;;;8.23;3.47;;;;;;;12.53;69.88;100611.71;2122015;83;30134;-64
2022/07/07 01:42:28;;;;;;;5.60;3.17;;;;;;;12.54;69.89;100604.05;2121965;83;27630;-64
2022/07/07 01:45:51;;;;;;;5.78;3.83;;;;;;;12.56;70.05;100609.75;2121526;83;28652;-65
2022/07/07 01:48:49;;;;;;;8.20;4.33;;;;;;;12.59;70.00;100606.87;2047788;85;28785;-65
2022/07/07 01:51:50;;;;;;;6.05;3.55;;;;;;;12.62;70.08;100603.17;2046366;86;33021;-65
2022/07/07 01:54:52;;;;;;;6.10;3.33;;;;;;;12.64;70.04;100605.31;2063091;86;30038;-63
2022/07/07 01:57:53;;;;;;;6.15;3.37;;;;;;;12.68;70.04;100608.70;2042007;87;27891;-63
2022/07/07 02:00:54;;;;;;;8.48;3.50;;;;;;;12.70;69.99;100603.62;2063073;86;28858;-63
2022/07/07 02:03:55;;;;;;;4.97;3.45;;;;;;;12.73;70.03;100598.57;2042223;87;31382;-62
2022/07/07 02:06:58;;;;;;;7.60;4.00;;;;;;;12.76;70.12;100593.89;2036852;85;33583;-62
2022/07/07 02:10:01;;;;;;;8.30;3.98;;;;;;;12.81;70.17;100591.44;2035023;87;29328;-62
2022/07/07 02:13:04;;;;;;;9.33;3.95;;;;;;;12.84;70.23;100588.55;2030623;87;27785;-63
2022/07/07 02:16:06;;;;;;;5.97;3.37;;;;;;;12.87;70.19;100597.80;2027186;87;28707;-63
2022/07/07 02:19:09;;;;;;;9.23;4.05;;;;;;;12.90;69.99;100593.61;2027462;87;31237;-63
2022/07/07 02:22:11;;;;;;;9.10;4.25;;;;;;;12.94;69.93;100592.95;2038572;86;33775;-63
2022/07/07 02:25:13;;;;;;;6.35;3.47;;;;;;;12.96;69.92;100597.31;2067231;86;30793;-62
2022/07/07 02:28:14;;;;;;;6.47;3.52;;;;;;;12.99;70.09;100593.58;2067526;86;27710;-63
2022/07/07 02:31:16;;;;;;;7.83;4.17;;;;;;;13.03;70.08;100593.81;2062523;86;28682;-63
2022/07/07 02:34:18;;;;;;;8.13;3.83;;;;;;;13.05;70.13;100590.56;2067064;86;31438;-63
2022/07/07 02:37:19;;;;;;;7.47;4.17;;;;;;;13.07;70.12;100594.89;2067578;86;33547;-63
2022/07/07 02:40:21;;;;;;;8.80;4.40;;;;;;;13.10;70.16;100592.50;2067421;86;29992;-63
2022/07/07 02:43:23;;;;;;;7.37;3.80;;;;;;;13.12;70.21;100589.74;2067552;86;27826;-63
2022/07/07 02:46:25;;;;;;;6.70;3.80;;;;;;;13.13;70.23;100588.79;2162038;81;28653;-62
2022/07/07 02:49:27;;;;;;;9.10;3.72;;;;;;;13.15;70.12;100589.58;2175331;81;31089;-63
2022/07/07 02:52:29;;;;;;;11.43;4.17;;;;;;;13.15;70.19;100594.47;2175351;81;33112;-63
2022/07/07 02:55:31;;;;;;;11.38;5.35;;;;;;;13.19;70.23;100591.12;2175314;81;30041;-63
2022/07/07 02:58:33;;;;;;;11.80;5.40;;;;;;;13.20;70.05;100592.39;2175762;81;28217;-62
2022/07/07 03:01:35;;;;;;;9.10;4.97;;;;;;;13.22;70.14;100581.08;2164256;81;30082;-63
2022/07/07 03:04:37;;;;;;;10.43;4.28;;;;;;;13.25;70.06;100587.21;2149348;82;31079;-63
2022/07/07 03:07:40;;;;;;;10.23;4.15;;;;;;;13.27;70.11;100584.84;2149663;82;33771;-64
2022/07/07 03:10:42;;;;;;;6.37;4.37;;;;;;;13.31;70.02;100581.49;2149806;82;29367;-64
2022/07/07 03:13:43;;;;;;;6.92;3.98;;;;;;;13.35;69.99;100583.06;2163124;81;27853;-63
2022/07/07 03:16:44;;;;;;;8.38;3.90;;;;;;;13.38;70.13;100584.24;2156199;82;29929;-63
2022/07/07 03:19:46;;;;;;;10.70;4.75;;;;;;;13.41;70.08;100585.42;2156524;82;31551;-64
2022/07/07 03:22:47;;;;;;;8.55;4.45;;;;;;;13.45;69.99;100579.41;2156251;82;32921;-63
2022/07/07 03:25:50;;;;;;;7.83;4.25;;;;;;;13.48;69.94;100577.40;2156598;82;29493;-63
2022/07/07 03:28:51;;;;;;;10.70;4.72;;;;;;;13.51;69.99;100577.23;2156630;82;27646;-64
2022/07/07 03:31:53;;;;;;;9.03;5.05;;;;;;;13.55;70.00;100576.56;2155625;82;28617;-63
2022/07/07 03:34:54;;;;;;;9.70;4.67;;;;;;;13.59;69.73;100579.94;2132285;82;31802;-63
2022/07/07 03:37:56;;;;;;;11.88;4.70;;;;;;;13.62;69.87;100573.92;2156414;82;32846;-64
2022/07/07 03:40:57;;;;;;;9.80;4.53;;;;;;;13.67;69.85;100573.64;2156555;82;29449;-64
2022/07/07 03:43:59;;;;;;;6.97;4.05;;;;;;;13.72;69.85;100572.02;2156673;82;27707;-64
2022/07/07 03:47:01;;;;;;;13.72;4.60;;;;;;;13.78;69.79;100567.64;2156551;82;29674;-64
2022/07/07 03:50:04;;;;;;;8.85;4.25;;;;;;;13.85;69.93;100561.41;2156237;82;31488;-63
2022/07/07 03:53:05;;;;;;;9.95;4.78;;;;;;;13.92;70.04;100564.98;2156230;82;33670;-63
2022/07/07 03:56:07;;;;;;;8.60;4.87;;;;;;;14.00;69.87;100565.87;2156554;82;30314;-63
2022/07/07 03:59:08;;;;;;;18.75;6.15;;;;;;;14.08;69.92;100564.92;2156618;82;27715;-63
2022/07/07 04:02:10;;;;;;;7.87;4.22;;;;;;;14.17;70.01;100562.64;2154527;82;29399;-63
2022/07/07 04:05:12;;;;;;;7.45;4.97;;;;;;;14.25;70.04;100554.48;2156635;82;31034;-63
2022/07/07 04:08:14;;;;;;;11.57;5.62;;;;;;;14.36;69.89;100557.88;2156655;82;33403;-63
2022/07/07 04:11:15;;;;;;;18.10;6.80;;;;;;;14.49;69.83;100557.11;2156464;82;29341;-63
2022/07/07 04:14:17;;;;;;;11.10;6.35;;;;;;;14.63;69.66;100561.65;2174019;81;28092;-62
2022/07/07 04:17:18;;;;;;;19.55;6.72;;;;;;;14.77;69.52;100555.41;2181497;81;29527;-63
2022/07/07 04:20:19;;;;;;;13.68;6.45;;;;;;;14.91;69.17;100549.14;2181466;81;31000;-64
2022/07/07 04:23:21;;;;;;;11.70;6.30;;;;;;;15.10;69.08;100552.39;2181587;81;33803;-64
2022/07/07 04:26:22;;;;;;;15.30;6.53;;;;;;;15.44;68.49;100522.30;2181622;81;29339;-64
2022/07/07 04:29:24;;;;;;;13.38;5.60;;;;;;;15.44;68.49;100522.30;2181685;81;27732;-64
2022/07/07 04:32:25;;;;;;;12.10;5.72;;;;;;;15.75;67.94;100540.49;2179246;81;28647;-64
2022/07/07 04:35:27;;;;;;;7.85;5.12;;;;;;;16.04;67.25;100534.49;2177566;81;31113;-64
2022/07/07 04:38:28;;;;;;;9.95;5.17;;;;;;;16.04;67.25;100534.49;2177565;81;32938;-64
2022/07/07 04:41:30;;;;;;;12.50;6.22;;;;;;;16.12;66.72;100530.41;2177186;81;29513;-64
2022/07/07 04:44:32;;;;;;;12.35;5.62;;;;;;;16.28;66.39;100536.48;2177611;81;27628;-64
2022/07/07 04:47:40;;;;;;;15.75;5.72;;;;;;;16.36;65.96;100533.23;2177601;81;28697;-64
2022/07/07 04:50:42;;;;;;;11.88;5.80;;;;;;;16.46;65.86;100528.89;2176697;81;31094;-64
2022/07/07 04:53:43;;;;;;;10.10;6.12;;;;;;;16.58;65.60;100528.52;2177197;81;33188;-64
2022/07/07 04:56:45;;;;;;;8.48;5.47;;;;;;;16.71;65.49;100525.30;2177542;81;29327;-64
2022/07/07 04:59:46;;;;;;;12.10;5.58;;;;;;;16.74;64.97;100497.66;2177751;81;27636;-64
2022/07/07 05:02:47;;;;;;;9.48;4.95;;;;;;;17.07;64.67;100525.97;2180818;81;29523;-64
2022/07/07 05:05:48;;;;;;;18.15;5.35;;;;;;;17.27;64.28;100526.72;2181736;81;31018;-63
2022/07/07 05:08:49;;;;;;;7.50;4.12;;;;;;;17.56;64.08;100520.95;2181548;81;33743;-63
2022/07/07 05:11:51;;;;;;;10.03;4.30;;;;;;;17.87;63.66;100521.31;2181729;81;29314;-63
2022/07/07 05:14:52;;;;;;;11.35;4.05;;;;;;;18.20;63.09;100519.70;2163045;81;27897;-64
2022/07/07 05:17:53;;;;;;;7.80;3.70;;;;;;;18.54;62.74;100516.16;2187033;80;29089;-64
2022/07/07 05:20:55;;;;;;;12.93;4.45;;;;;;;18.93;62.44;100517.16;2175540;81;30985;-65
2022/07/07 05:23:56;;;;;;;10.68;4.65;;;;;;;19.54;61.99;100519.36;2116676;83;33795;-66
2022/07/07 05:26:57;;;;;;;10.90;4.45;;;;;;;20.07;60.79;100515.45;2121298;82;29338;-64
2022/07/07 05:29:58;;;;;;;8.65;3.50;;;;;;;20.41;59.83;100510.64;2146985;82;27632;-64
2022/07/07 05:32:59;;;;;;;7.95;3.55;;;;;;;20.74;59.09;100503.70;2108242;84;29565;-64
2022/07/07 05:36:00;;;;;;;9.20;3.67;;;;;;;20.96;58.07;100509.47;2108579;84;31077;-64
2022/07/07 05:39:02;;;;;;;10.35;3.47;;;;;;;21.15;57.57;100507.80;2121414;83;33193;-64
2022/07/07 05:42:04;;;;;;;9.03;3.70;;;;;;;21.36;57.28;100510.41;2150482;82;29310;-64
2022/07/07 05:45:07;;;;;;;10.55;4.05;;;;;;;21.65;56.55;100502.78;2151073;82;27597;-64
2022/07/07 05:48:08;;;;;;;9.25;3.52;;;;;;;21.68;55.76;100499.77;2108690;84;29492;-64
2022/07/07 05:51:10;;;;;;;7.58;3.47;;;;;;;21.69;55.38;100506.95;2108719;83;31010;-64
2022/07/07 05:54:11;;;;;;;8.63;3.70;;;;;;;21.69;55.21;100506.95;2130169;82;32948;-63
2022/07/07 05:57:14;;;;;;;10.38;3.80;;;;;;;21.74;55.23;100503.30;2161949;82;29317;-64
2022/07/07 06:00:16;;;;;;;3.62;2.80;;;;;;;21.80;54.76;100505.95;2134941;83;27773;-64
2022/07/07 06:03:17;;;;;;;6.67;3.00;;;;;;;21.82;53.62;100502.06;2134846;83;28732;-64
2022/07/07 06:06:18;;;;;;;8.05;3.22;;;;;;;21.81;53.34;100502.22;2134904;83;31022;-65
2022/07/07 06:09:20;;;;;;;6.47;3.15;;;;;;;21.90;53.22;100502.70;2134881;83;32941;-65
2022/07/07 06:12:21;;;;;;;4.67;2.77;;;;;;;22.02;52.92;100499.31;2134900;83;30126;-64
2022/07/07 06:15:23;;;;;;;10.50;2.90;;;;;;;22.15;52.47;100503.95;2134593;83;27645;-64
2022/07/07 06:18:24;;;;;;;5.60;3.30;;;;;;;22.25;52.35;100497.11;2134897;83;28853;-65
2022/07/07 06:21:26;;;;;;;9.23;3.30;;;;;;;22.33;52.17;100496.37;2134709;83;31079;-66
2022/07/07 06:24:27;;;;;;;6.20;3.08;;;;;;;22.33;51.63;100490.91;2136312;83;33736;-65
2022/07/07 06:27:28;;;;;;;5.87;3.62;;;;;;;22.33;51.44;100501.83;2134871;83;29361;-65
2022/07/07 06:30:30;;;;;;;6.67;3.87;;;;;;;22.37;51.20;100496.43;2135012;83;27764;-64
2022/07/07 06:33:31;;;;;;;6.45;3.60;;;;;;;22.61;50.72;100497.80;2134854;83;28636;-65
2022/07/07 06:36:33;;;;;;;8.30;3.15;;;;;;;23.17;51.26;100492.34;2134567;83;31087;-64
2022/07/07 06:39:35;;;;;;;5.53;3.00;;;;;;;23.97;49.99;100492.46;2134635;83;32960;-65
2022/07/07 06:42:36;;;;;;;4.70;3.15;;;;;;;24.52;48.33;100482.70;2134738;83;29345;-65
2022/07/07 06:45:37;;;;;;;7.83;4.03;;;;;;;25.34;47.95;100483.55;2134734;83;27737;-65
2022/07/07 06:48:39;;;;;;;7.95;3.55;;;;;;;26.20;46.71;100478.63;2134698;83;29633;-65
2022/07/07 06:51:40;;;;;;;5.22;3.05;;;;;;;27.19;46.75;100471.05;2134474;83;31031;-66
2022/07/07 06:54:43;;;;;;;4.05;2.52;;;;;;;27.73;43.93;100470.16;2158362;82;33815;-65
2022/07/07 06:57:44;;;;;;;4.78;2.60;;;;;;;27.97;44.34;100464.95;2158450;82;28879;-65
2022/07/07 07:00:46;;;;;;;6.80;3.05;;;;;;;28.23;43.53;100462.84;2158471;82;27725;-64
2022/07/07 07:03:47;;;;;;;5.03;2.55;;;;;;;28.77;43.03;100463.13;2158417;82;28718;-64
2022/07/07 07:06:49;;;;;;;6.58;2.25;;;;;;;29.41;42.19;100463.77;2158275;82;31053;-65
2022/07/07 07:09:50;;;;;;;5.42;2.45;;;;;;;29.88;41.63;100455.59;2158316;82;32732;-64
2022/07/07 07:12:51;;;;;;;8.98;2.42;;;;;;;30.63;40.96;100453.70;2158283;82;30126;-65
2022/07/07 07:15:53;;;;;;;5.28;2.72;;;;;;;31.28;39.79;100451.39;2178824;81;27715;-65
2022/07/07 07:18:54;;;;;;;5.42;2.52;;;;;;;31.65;38.46;100456.02;2149252;82;28730;-65
2022/07/07 07:21:55;;;;;;;4.87;2.33;;;;;;;32.01;37.86;100451.17;2142155;82;31077;-65
2022/07/07 07:24:56;;;;;;;6.78;2.35;;;;;;;32.23;37.10;100448.13;2119498;84;32967;-65
2022/07/07 07:27:58;;;;;;;5.08;2.20;;;;;;;32.00;36.11;100448.59;2119259;84;29395;-65
2022/07/07 07:31:00;;;;;;;3.65;2.67;;;;;;;31.70;35.63;100446.23;2119726;84;27723;-65
2022/07/07 07:34:01;;;;;;;4.70;2.10;;;;;;;31.49;34.89;100442.08;2119409;83;28658;-67
2022/07/07 07:37:03;;;;;;;6.45;2.50;;;;;;;31.20;34.44;100437.76;2119447;84;31857;-66
2022/07/07 07:40:08;;;;;;;8.73;1.80;;;;;;;31.32;34.27;100440.77;2119442;83;33745;-66
2022/07/07 07:43:09;;;;;;;5.15;1.87;;;;;;;31.67;34.67;100443.37;2119460;84;30070;-66
2022/07/07 07:46:11;;;;;;;5.72;1.95;;;;;;;32.11;33.16;100437.71;2119501;83;27743;-66
2022/07/07 07:49:12;;;;;;;7.30;2.27;;;;;;;32.30;32.98;100439.83;2119403;84;28660;-66
2022/07/07 07:52:14;;;;;;;6.15;1.62;;;;;;;32.36;32.48;100426.49;2129947;82;45699;-66
2022/07/07 07:55:18;;;;;;;3.20;1.90;;;;;;;32.46;32.21;100423.27;2155720;82;33872;-65
2022/07/07 07:58:19;;;;;;;;;;;;;;;32.48;31.73;100428.06;2159069;82;29406;-66
2022/07/07 08:01:20;;;;;;;7.17;1.72;;;;;;;32.46;30.77;100422.72;2156283;82;27753;-66
2022/07/07 08:04:21;;;;;;;5.28;1.50;;;;;;;32.54;31.29;100423.01;2156076;82;28693;-65
2022/07/07 08:07:23;;;;;;;3.55;1.40;;;;;;;32.58;30.31;100421.51;2156207;82;30998;-66
2022/07/07 08:10:24;;;;;;;10.93;1.77;;;;;;;32.43;30.52;100414.31;2156210;82;32932;-67
2022/07/07 08:13:26;;;;;;;5.00;1.55;;;;;;;32.29;29.48;100416.81;2156392;82;29335;-67
2022/07/07 08:16:28;;;;;;;2.08;1.10;;;;;;;31.90;29.41;100407.46;2159335;82;27696;-66
2022/07/07 08:19:29;;;;;;;2.33;1.30;;;;;;;31.76;29.85;100402.48;2159785;82;29537;-66
2022/07/07 08:22:30;;;;;;;4.45;1.45;;;;;;;32.01;29.52;100407.34;2159467;82;30992;-66
2022/07/07 08:25:33;;;;;;;2.60;1.35;;;;;;;32.23;29.43;100409.31;2159764;82;32948;-67
2022/07/07 08:28:34;;;;;;;7.33;1.70;;;;;;;32.39;28.94;100404.72;2159626;82;30195;-66
2022/07/07 08:31:36;;;;;;;5.12;1.55;;;;;;;32.41;29.25;100403.97;2162379;82;27724;-66
2022/07/07 08:34:39;;;;;;;3.10;1.70;;;;;;;32.50;28.95;100401.80;2162337;82;28627;-67
2022/07/07 08:37:41;;;;;;;3.10;1.80;;;;;;;32.60;28.72;100402.73;2162503;82;31820;-66
2022/07/07 08:40:42;;;;;;;5.45;1.60;;;;;;;32.62;28.22;100397.81;2162246;82;32973;-66
2022/07/07 08:43:43;;;;;;;4.53;1.60;;;;;;;32.66;27.74;100396.31;2162227;82;29300;-66
2022/07/07 08:46:45;;;;;;;2.62;1.52;;;;;;;32.60;27.79;100393.02;2163037;82;27661;-67
2022/07/07 08:49:46;;;;;;;2.12;1.50;;;;;;;32.81;28.80;100389.63;2162238;82;28693;-65
2022/07/07 08:52:50;;;;;;;3.02;1.12;;;;;;;32.85;28.03;100393.66;2162428;82;31867;-66
2022/07/07 08:55:52;;;;;;;4.58;1.27;;;;;;;32.63;28.23;100390.33;2162383;82;33843;-66
2022/07/07 08:58:53;;;;;;;2.52;1.30;;;;;;;32.39;28.12;100390.02;2162758;82;29316;-65
2022/07/07 09:02:00;;;;;;;3.30;1.62;;;;;;;32.03;27.73;100388.58;2162501;82;27756;-65
2022/07/07 09:05:01;;;;;;;1.55;1.20;;;;;;;31.43;27.75;100386.14;2162261;82;28699;-66
2022/07/07 09:08:19;;;;;;;3.17;1.57;;;;;;;31.05;27.79;100393.09;2162359;82;31056;-65
2022/07/07 09:11:30;;;;;;;2.40;1.47;;;;;;;30.81;27.92;100390.89;2117018;84;32988;-66
2022/07/07 09:14:40;;;;;;;3.33;1.15;;;;;;;30.71;28.32;100388.52;2092379;84;30130;-66
2022/07/07 09:17:41;;;;;;;2.67;1.47;;;;;;;30.75;28.12;100389.81;2071856;85;27879;-65
2022/07/07 09:20:43;;;;;;;4.53;0.95;;;;;;;30.69;28.12;100387.90;2072134;85;28678;-65
2022/07/07 09:23:53;;;;;;;2.05;0.93;;;;;;;30.63;27.97;100381.80;2041755;85;31832;-66
2022/07/07 09:26:55;;;;;;;2.58;1.15;;;;;;;30.44;27.52;100380.09;2036501;87;33772;-66
2022/07/07 09:29:56;;;;;;;1.77;0.90;;;;;;;30.30;28.08;100380.55;2036427;87;29581;-66
2022/07/07 09:33:06;;;;;;;3.83;0.90;;;;;;;30.44;27.82;100373.18;2036481;87;27693;-66
2022/07/07 09:39:50;;;;;;;1.70;1.02;;;;;;;30.65;27.66;100377.75;2016811;87;31119;-67
2022/07/07 09:42:57;;;;;;;1.72;0.80;;;;;;;30.60;28.57;100379.77;2036420;87;33036;-66
2022/07/07 09:46:20;;;;;;;2.45;0.90;;;;;;;30.47;28.53;100370.02;2035661;87;29473;-66
2022/07/07 09:49:21;;;;;;;1.45;0.80;;;;;;;30.37;28.49;100374.53;2071656;85;27749;-65
2022/07/07 09:52:23;;;;;;;3.52;0.90;;;;;;;30.26;27.92;100365.45;2101238;83;28676;-65
2022/07/07 09:55:24;;;;;;;2.60;1.02;;;;;;;30.13;27.89;100362.08;2123762;83;30998;-68
2022/07/07 09:58:26;;;;;;;5.53;0.95;;;;;;;29.94;27.76;100371.94;2146408;82;33122;-65
2022/07/07 10:01:32;;;;;;;1.50;0.95;;;;;;;29.76;27.69;100368.28;2146583;82;30097;-65
2022/07/07 10:04:34;;;;;;;4.35;1.00;;;;;;;29.46;27.62;100368.48;2123756;83;27632;-66
2022/07/07 10:07:36;;;;;;;1.47;1.10;;;;;;;29.16;27.92;100366.69;2123784;83;28683;-66
2022/07/07 10:10:38;;;;;;;1.32;0.85;;;;;;;28.98;28.48;100368.54;2146468;82;31990;-66
2022/07/07 10:13:44;;;;;;;2.87;0.93;;;;;;;28.89;28.76;100370.56;2146384;82;33765;-65
2022/07/07 10:16:49;;;;;;;5.55;1.10;;;;;;;28.88;28.79;100368.86;2177090;81;29371;-70
2022/07/07 10:19:50;;;;;;;3.12;1.17;;;;;;;29.03;29.27;100370.70;2186041;81;27635;-66
2022/07/07 10:22:51;;;;;;;3.45;1.05;;;;;;;29.09;29.45;100384.56;2165431;81;28662;-66
2022/07/07 10:26:02;;;;;;;2.50;1.00;;;;;;;28.92;29.62;100385.35;2119605;84;31088;-66
2022/07/07 10:29:05;;;;;;;7.03;1.07;;;;;;;28.82;30.04;100387.55;2119423;84;32985;-66
2022/07/07 10:32:09;;;;;;;7.70;1.40;;;;;;;28.73;30.31;100392.83;2144524;83;29323;-66
2022/07/07 10:35:16;;;;;;;3.55;0.90;;;;;;;28.52;30.39;100387.59;2119602;84;27696;-66
2022/07/07 10:38:18;;;;;;;8.65;1.40;;;;;;;28.27;30.49;100385.16;2119460;84;28650;-66
2022/07/07 10:41:24;;;;;;;2.33;0.90;;;;;;;28.19;30.96;100389.37;2143839;83;31870;-67
2022/07/07 10:44:27;;;;;;;1.77;1.00;;;;;;;28.21;31.45;100394.17;2095313;84;33057;-65
2022/07/07 10:47:31;;;;;;;2.15;1.00;;;;;;;28.27;31.61;100389.80;2119600;84;29169;-66
2022/07/07 10:50:34;;;;;;;4.25;1.62;;;;;;;28.32;31.56;100392.84;2144443;83;27681;-66
2022/07/07 10:53:37;;;;;;;5.22;1.37;;;;;;;28.27;31.44;100395.30;2148966;82;28631;-66
2022/07/07 10:56:59;;;;;;;7.40;1.15;;;;;;;28.15;31.46;100397.67;2156024;82;30471;-65
2022/07/07 11:00:27;;;;;;;3.00;1.15;;;;;;;28.09;31.68;100404.77;2156233;82;33112;-66
2022/07/07 11:03:29;;;;;;;5.70;1.00;;;;;;;27.90;31.30;100400.14;2080923;85;29313;-66
2022/07/07 11:06:37;;;;;;;2.05;1.15;;;;;;;27.70;31.71;100396.23;2084705;84;27786;-66
2022/07/07 11:10:06;;;;;;;4.37;1.15;;;;;;;27.69;32.37;100396.74;2099354;84;28673;-66
2022/07/07 11:13:16;;;;;;;4.10;1.05;;;;;;;27.58;32.28;100397.20;2108052;84;32002;-66
2022/07/07 11:16:24;;;;;;;2.65;1.05;;;;;;;27.38;32.42;100396.30;2084849;84;32550;-66
2022/07/07 11:19:30;;;;;;;5.22;1.50;;;;;;;27.26;32.67;100399.16;2067827;86;30182;-66
2022/07/07 11:22:45;;;;;;;3.35;1.70;;;;;;;27.12;32.78;100403.04;2045551;86;28275;-66
2022/07/07 11:25:47;;;;;;;3.70;1.30;;;;;;;27.05;33.66;100392.95;2067876;86;29580;-66
2022/07/07 11:28:54;;;;;;;1.57;0.98;;;;;;;27.07;33.94;100396.34;2067856;86;31213;-66
2022/07/07 11:32:06;;;;;;;2.87;1.47;;;;;;;26.99;33.81;100391.77;2067888;86;32954;-66
2022/07/07 11:35:11;;;;;;;1.98;1.00;;;;;;;26.95;34.11;100398.16;2067941;86;29329;-66
2022/07/07 11:38:13;;;;;;;4.03;1.17;;;;;;;27.02;34.23;100400.19;2124909;83;27788;-66
2022/07/07 11:41:14;;;;;;;6.67;1.55;;;;;;;26.99;34.35;100391.27;2143916;82;28705;-66
2022/07/07 11:44:23;;;;;;;6.87;1.20;;;;;;;27.03;34.37;100389.53;2144187;83;30905;-66
2022/07/07 11:47:30;;;;;;;4.62;1.20;;;;;;;27.04;34.77;100392.62;2178543;81;32966;-66
2022/07/07 11:50:35;;;;;;;4.40;1.22;;;;;;;27.12;34.52;100399.42;2181295;81;29511;-66
2022/07/07 11:53:38;;;;;;;2.08;1.10;;;;;;;27.12;34.44;100393.92;2181838;81;27622;-66
2022/07/07 11:56:39;;;;;;;4.70;1.40;;;;;;;27.27;34.97;100393.99;2181664;81;28692;-65
2022/07/07 11:59:41;;;;;;;6.17;1.60;;;;;;;27.53;35.17;100383.13;2181467;81;31004;-66
2022/07/07 12:02:47;;;;;;;3.10;1.55;;;;;;;27.75;35.05;100380.87;2181536;81;33933;-66
2022/07/07 12:05:48;;;;;;;1.75;1.25;;;;;;;27.92;34.78;100384.83;2181476;81;29327;-65
2022/07/07 12:08:50;;;;;;;3.52;1.47;;;;;;;28.01;34.33;100373.20;2181699;81;27666;-66
2022/07/07 12:11:53;;;;;;;1.87;1.32;;;;;;;27.98;34.31;100369.45;2181230;81;28768;-65
2022/07/07 12:14:54;;;;;;;1.55;1.10;;;;;;;28.04;34.35;100370.92;2181296;81;31155;-66
2022/07/07 12:17:57;;;;;;;2.52;1.65;;;;;;;28.21;34.31;100370.76;2181582;81;32972;-66
2022/07/07 12:21:04;;;;;;;2.20;1.32;;;;;;;28.35;34.06;100371.80;2181599;81;29323;-66
2022/07/07 12:24:06;;;;;;;4.87;1.35;;;;;;;28.31;34.39;100370.47;2181577;81;27659;-65
2022/07/07 12:27:19;;;;;;;2.67;1.60;;;;;;;28.28;34.03;100373.59;2155914;81;29162;-66
2022/07/07 12:30:21;;;;;;;2.37;1.20;;;;;;;28.34;33.92;100370.09;2181430;81;31786;-66
2022/07/07 12:33:30;;;;;;;4.20;1.20;;;;;;;28.10;33.19;100361.61;2181168;81;29867;-65
2022/07/07 12:36:33;;;;;;;1.47;0.90;;;;;;;28.10;33.19;100361.61;2181820;81;29344;-66
2022/07/07 12:39:35;;;;;;;1.40;1.17;;;;;;;28.04;33.72;100358.52;2181852;81;27619;-65
2022/07/07 12:42:37;;;;;;;2.60;0.90;;;;;;;28.04;33.55;100355.77;2181278;81;28671;-65
2022/07/07 12:45:39;;;;;;;1.00;0.78;;;;;;;28.05;33.61;100357.98;2181466;81;31010;-66
2022/07/07 12:48:50;;;;;;;5.47;1.20;;;;;;;28.14;34.09;100356.89;2181191;81;32998;-66
2022/07/07 12:51:54;;;;;;;3.60;1.35;;;;;;;28.39;33.78;100359.86;2180815;81;29382;-66
2022/07/07 12:55:11;;;;;;;2.50;1.30;;;;;;;28.46;33.35;100356.14;2169180;81;27801;-66
2022/07/07 12:58:21;;;;;;;2.60;1.00;;;;;;;28.47;33.39;100358.36;2166373;81;28711;-67
2022/07/07 13:01:26;;;;;;;2.67;1.05;;;;;;;28.44;33.44;100348.59;2122743;83;31011;-66
2022/07/07 13:04:29;;;;;;;2.27;1.15;;;;;;;28.32;32.92;100346.84;2106087;84;33672;-65
2022/07/07 13:07:30;;;;;;;1.90;0.98;;;;;;;28.19;33.02;100344.79;2126691;82;29336;-66
2022/07/07 13:10:32;;;;;;;1.00;0.82;;;;;;;28.21;33.29;100344.59;2124726;83;27646;-66
2022/07/07 13:13:34;;;;;;;1.27;0.75;;;;;;;28.22;33.60;100339.41;2083525;84;28733;-66
2022/07/07 13:16:36;;;;;;;3.05;1.02;;;;;;;28.34;33.69;100341.16;2118387;83;31025;-66
2022/07/07 13:19:37;;;;;;;3.92;1.00;;;;;;;28.30;33.75;100333.78;2116130;84;33825;-66
2022/07/07 13:22:41;;;;;;;0.90;0.65;;;;;;;28.37;33.90;100335.77;2127258;82;29355;-66
2022/07/07 13:25:45;;;;;;;2.00;1.00;;;;;;;28.44;33.72;100337.56;2156133;82;27577;-66
2022/07/07 13:28:47;;;;;;;2.90;1.00;;;;;;;28.45;33.66;100335.69;2156381;82;29480;-65
2022/07/07 13:31:48;;;;;;;1.30;0.80;;;;;;;28.42;33.30;100336.90;2156264;82;31021;-66
2022/07/07 13:34:50;;;;;;;2.05;0.78;;;;;;;28.39;33.53;100339.20;2156136;82;32981;-66
2022/07/07 13:37:51;;;;;;;1.82;0.93;;;;;;;28.27;33.37;100332.81;2156293;82;29315;-66
2022/07/07 13:40:53;;;;;;;2.05;1.05;;;;;;;28.31;33.88;100340.16;2156249;82;27864;-66
2022/07/07 13:43:54;;;;;;;3.83;0.80;;;;;;;28.28;33.71;100337.78;2156337;82;28819;-66
2022/07/07 13:46:56;;;;;;;1.30;0.80;;;;;;;28.23;33.31;100337.49;2156313;82;31007;-67
2022/07/07 13:49:59;;;;;;;1.90;0.70;;;;;;;28.13;33.46;100335.91;2156213;82;33129;-66
2022/07/07 13:53:01;;;;;;;3.33;1.53;;;;;;;28.03;33.26;100335.31;2156209;82;29387;-65
2022/07/07 13:56:02;;;;;;;2.52;0.82;;;;;;;27.96;33.52;100329.72;2156313;82;27700;-67
2022/07/07 13:59:04;;;;;;;2.60;1.35;;;;;;;27.88;33.56;100322.37;2156092;82;28627;-66
2022/07/07 14:02:06;;;;;;;2.47;1.02;;;;;;;27.94;33.51;100327.67;2156034;82;31082;-66
2022/07/07 14:05:09;;;;;;;2.27;0.80;;;;;;;27.93;33.43;100327.84;2155928;82;32961;-67
2022/07/07 14:08:10;;;;;;;1.92;0.90;;;;;;;27.86;33.51;100319.49;2155615;82;30353;-66
2022/07/07 14:11:12;;;;;;;4.12;1.07;;;;;;;27.81;33.55;100322.82;2155115;81;27735;-68
2022/07/07 14:14:13;;;;;;;3.45;1.07;;;;;;;27.82;34.21;100325.91;2148513;81;28679;-68
2022/07/07 14:17:15;;;;;;;7.33;1.87;;;;;;;27.74;33.40;100321.34;2151969;81;32713;-67